Airfield :







YOU CAN JOIN US ON...

 
LOGIN :

Register | Disclaimer

   EN    FR    IT 

 









Legend :    VFR   Marginal VFR   IFR   Intensive IFR   Very Intensive IFR
Visi :
Ceiling :
>= 8 km
>= 3000ft
5 to 8 km
1000 to 3000 ft
1500m to 5 km
500 to 1000 ft
800 to 1500m
200 to 500 ft
< 800m
< 200 ft
Symbols :   Thunderstorms  Fog  Heavy snow  Heavy precipitations  Wind > 20 kt







- Airport Elevation : 192 ft
- IATA code : BGR


KBGR - Bangor International

CURRENT METAR :
  • 211653Z 10SM FEW040 24/12 A3016 RMK AO2 SLP208 T02390117

EXPIRED METARs :
  • 211553Z 00000KT 10SM FEW040 23/11 A3017 RMK AO2 SLP212 T02330111
  • 211453Z 04007KT 10SM FEW040 22/12 A3018 RMK AO2 SLP215 T02220117 51009

TAF KBGR
Valid from the 21 at 12:00 until the 22 at 12:00 UTC


211121Z 2112/2212 33003KT P6SM FEW200
FM212000 30004KT P6SM FEW250
FM220300 00000KT P6SM FEW150
FM220500 20003KT 3SM BR SCT002
No reported NOTAMs for that airfield.



MET'MAP, your aeronautical weather chart ! - Copyright ORBIFLY December 2007 - Disclaimer

ORBIFLY MET'MAP TEAM :

Programming & Development : Alexandra Zaïnal
Concept & Development : Baudouin d'Aumeries
Co-Development & Prog : Marc-Olivier Méhu
Technical & hardware support : Manuel Goepfert

Contact : metmap@orbifly.com




SOURCES & CREDITS :

   NOAA